createdAt,value
2022-12-24T00:02:20.339Z,9.70
2022-12-24T00:04:47.092Z,9.70
2022-12-24T00:07:13.816Z,9.70
2022-12-24T00:09:40.550Z,9.60
2022-12-24T00:12:07.528Z,9.60
2022-12-24T00:14:34.193Z,9.70
2022-12-24T00:17:01.012Z,9.70
2022-12-24T00:19:27.730Z,9.70
2022-12-24T00:21:54.410Z,9.70
2022-12-24T00:24:21.062Z,9.70
2022-12-24T00:26:47.705Z,9.70
2022-12-24T00:29:14.414Z,9.70
2022-12-24T00:31:41.122Z,9.70
2022-12-24T00:34:08.615Z,9.70
2022-12-24T00:36:35.341Z,9.60
2022-12-24T00:39:02.298Z,9.60
2022-12-24T00:41:29.542Z,9.50
2022-12-24T00:44:01.197Z,9.50
2022-12-24T00:46:29.618Z,9.40
2022-12-24T00:48:56.457Z,9.40
2022-12-24T00:51:23.546Z,9.40
2022-12-24T00:53:50.329Z,9.40
2022-12-24T00:56:17.011Z,9.40
2022-12-24T00:58:43.670Z,9.40
2022-12-24T01:01:10.507Z,9.40
2022-12-24T01:03:37.329Z,9.40
2022-12-24T01:06:04.759Z,9.50
2022-12-24T01:08:31.701Z,9.50
2022-12-24T01:10:58.408Z,9.60
2022-12-24T01:13:25.169Z,9.60
2022-12-24T01:15:51.947Z,9.60
2022-12-24T01:18:18.719Z,9.60
2022-12-24T01:20:45.452Z,9.60
2022-12-24T01:23:12.191Z,9.50
2022-12-24T01:25:39.120Z,9.70
2022-12-24T01:28:06.106Z,9.70
2022-12-24T01:30:32.843Z,9.70
2022-12-24T01:32:59.559Z,9.70
2022-12-24T01:35:26.234Z,9.80
2022-12-24T01:37:52.921Z,9.80
2022-12-24T01:40:38.303Z,9.80
2022-12-24T01:43:28.054Z,9.90
2022-12-24T01:45:56.415Z,9.90
2022-12-24T01:48:44.465Z,9.90
2022-12-24T01:51:13.869Z,9.90
2022-12-24T01:53:41.080Z,9.90
2022-12-24T01:56:07.800Z,10.00
2022-12-24T01:58:34.832Z,10.00
2022-12-24T02:01:01.514Z,10.00
2022-12-24T02:03:28.233Z,10.00
2022-12-24T02:05:55.812Z,10.00
2022-12-24T02:08:22.548Z,10.00
2022-12-24T02:10:49.510Z,10.00
2022-12-24T02:13:17.663Z,10.00
2022-12-24T02:16:08.105Z,10.10
2022-12-24T02:18:44.438Z,10.00
2022-12-24T02:21:19.415Z,10.10
2022-12-24T02:24:23.823Z,10.00
2022-12-24T02:27:13.920Z,10.00
2022-12-24T02:30:03.444Z,10.10
2022-12-24T02:33:07.031Z,10.00
2022-12-24T02:35:45.286Z,10.00
2022-12-24T02:38:19.522Z,9.90
2022-12-24T02:40:52.534Z,10.00
2022-12-24T02:43:24.645Z,9.90
2022-12-24T02:45:58.900Z,9.90
2022-12-24T02:48:26.094Z,9.90
2022-12-24T02:51:04.278Z,9.90
2022-12-24T02:53:31.374Z,9.90
2022-12-24T02:56:30.275Z,10.00
2022-12-24T02:59:16.405Z,9.90
2022-12-24T03:01:51.821Z,9.90
2022-12-24T03:04:43.446Z,9.90
2022-12-24T03:07:17.179Z,9.80
2022-12-24T03:10:06.306Z,9.90
2022-12-24T03:13:02.975Z,9.90
2022-12-24T03:15:29.727Z,9.90
2022-12-24T03:17:58.670Z,9.90
2022-12-24T03:20:27.018Z,9.90
2022-12-24T03:22:53.737Z,9.90
2022-12-24T03:25:20.449Z,9.90
2022-12-24T03:27:47.809Z,9.80
2022-12-24T03:30:15.530Z,9.80
2022-12-24T03:32:42.285Z,9.80
2022-12-24T03:35:10.241Z,9.80
2022-12-24T03:37:37.093Z,9.80
2022-12-24T03:40:05.551Z,9.80
2022-12-24T03:42:32.245Z,9.80
2022-12-24T03:44:58.983Z,9.90
2022-12-24T03:47:25.714Z,9.80
2022-12-24T03:49:52.848Z,9.80
2022-12-24T03:52:19.558Z,9.90
2022-12-24T03:54:46.287Z,9.90
2022-12-24T03:57:12.969Z,9.90
2022-12-24T03:59:39.626Z,9.90
2022-12-24T04:02:06.558Z,9.90
2022-12-24T04:04:36.630Z,9.90
2022-12-24T04:07:04.682Z,9.90
2022-12-24T04:09:32.009Z,9.90
2022-12-24T04:11:58.753Z,9.90
2022-12-24T04:14:25.900Z,9.90
2022-12-24T04:16:52.630Z,9.90
2022-12-24T04:19:19.356Z,9.80
2022-12-24T04:21:46.140Z,9.80
2022-12-24T04:24:13.000Z,9.80
2022-12-24T04:26:39.690Z,9.90
2022-12-24T04:29:06.351Z,9.80
2022-12-24T04:31:33.082Z,9.80
2022-12-24T04:33:59.821Z,9.80
2022-12-24T04:36:26.484Z,9.80
2022-12-24T04:38:53.194Z,9.80
2022-12-24T04:41:24.137Z,9.80
2022-12-24T04:43:52.001Z,9.80
2022-12-24T04:46:24.095Z,9.80
2022-12-24T04:48:51.679Z,9.80
2022-12-24T04:51:18.452Z,9.80
2022-12-24T04:53:45.342Z,9.80
2022-12-24T04:56:13.163Z,9.80
2022-12-24T04:58:39.816Z,9.80
2022-12-24T05:01:07.428Z,9.80
2022-12-24T05:03:34.720Z,9.80
2022-12-24T05:06:09.070Z,9.80
2022-12-24T05:08:51.782Z,9.80
2022-12-24T05:11:25.833Z,9.90
2022-12-24T05:16:44.030Z,9.90
2022-12-24T05:19:11.875Z,9.90
2022-12-24T05:21:38.883Z,9.90
2022-12-24T05:24:25.687Z,9.80
2022-12-24T05:26:53.974Z,9.90
2022-12-24T05:29:21.358Z,9.90
2022-12-24T05:31:48.984Z,9.90
2022-12-24T05:34:16.405Z,9.90
2022-12-24T05:36:44.047Z,9.90
2022-12-24T05:39:15.958Z,9.80
2022-12-24T05:41:43.247Z,9.80
2022-12-24T05:44:10.625Z,9.80
2022-12-24T05:46:38.053Z,9.90
2022-12-24T05:49:05.121Z,9.90
2022-12-24T05:51:32.475Z,9.90
2022-12-24T05:53:59.417Z,9.80
2022-12-24T05:56:26.505Z,9.80
2022-12-24T05:58:53.917Z,9.80
2022-12-24T06:01:21.933Z,9.80
2022-12-24T06:03:51.982Z,9.80
2022-12-24T06:06:21.326Z,9.80
2022-12-24T06:08:49.360Z,9.90
2022-12-24T06:11:18.108Z,9.80
2022-12-24T06:13:45.212Z,9.80
2022-12-24T06:16:13.946Z,9.80
2022-12-24T06:18:40.949Z,9.80
2022-12-24T06:21:08.172Z,9.80
2022-12-24T06:23:36.277Z,9.80
2022-12-24T06:26:03.313Z,9.70
2022-12-24T06:28:34.217Z,9.80
2022-12-24T06:31:03.137Z,9.80
2022-12-24T06:33:31.368Z,9.80
2022-12-24T06:35:58.086Z,9.80
2022-12-24T06:38:24.911Z,9.80
2022-12-24T06:40:52.041Z,9.70
2022-12-24T06:43:19.739Z,9.70
2022-12-24T06:45:47.849Z,9.70
2022-12-24T06:48:15.823Z,9.70
2022-12-24T06:50:42.922Z,9.70
2022-12-24T06:53:09.624Z,9.60
2022-12-24T06:55:36.345Z,9.70
2022-12-24T06:58:04.149Z,9.70
2022-12-24T07:00:31.259Z,9.70
2022-12-24T07:02:58.148Z,9.70
2022-12-24T07:05:25.315Z,9.70
2022-12-24T07:07:51.965Z,9.70
2022-12-24T07:10:19.189Z,9.70
2022-12-24T07:12:46.251Z,9.70
2022-12-24T07:15:14.617Z,9.70
2022-12-24T07:17:41.678Z,9.70
2022-12-24T07:20:10.389Z,9.70
2022-12-24T07:22:37.158Z,9.70
2022-12-24T07:25:04.069Z,9.60
2022-12-24T07:27:30.878Z,9.60
2022-12-24T07:29:57.551Z,9.60
2022-12-24T07:32:24.228Z,9.60
2022-12-24T07:34:50.878Z,9.60
2022-12-24T07:37:17.546Z,9.60
2022-12-24T07:39:44.228Z,9.60
2022-12-24T07:42:10.930Z,9.60
2022-12-24T07:44:37.703Z,9.60
2022-12-24T07:47:04.528Z,9.60
2022-12-24T07:49:31.391Z,9.50
2022-12-24T07:51:58.090Z,9.50
2022-12-24T07:54:24.933Z,9.50
2022-12-24T07:56:51.666Z,9.50
2022-12-24T07:59:18.385Z,9.50
2022-12-24T08:01:45.621Z,9.60
2022-12-24T08:04:12.684Z,9.60
2022-12-24T08:06:39.607Z,9.60
2022-12-24T08:09:06.321Z,9.60
2022-12-24T08:11:33.014Z,9.70
2022-12-24T08:13:59.698Z,9.70
2022-12-24T08:16:26.425Z,9.70
2022-12-24T08:18:53.112Z,9.70
2022-12-24T08:21:19.788Z,9.70
2022-12-24T08:23:47.031Z,9.80
2022-12-24T08:26:13.725Z,9.80
2022-12-24T08:28:40.490Z,9.80
2022-12-24T08:34:13.426Z,9.80
2022-12-24T08:36:42.241Z,9.80
2022-12-24T08:39:09.732Z,9.80
2022-12-24T08:41:36.406Z,9.80
2022-12-24T08:44:03.350Z,9.90
2022-12-24T08:46:30.165Z,9.90
2022-12-24T08:48:56.937Z,9.90
2022-12-24T08:51:23.611Z,10.00
2022-12-24T08:53:50.478Z,10.00
2022-12-24T08:56:20.510Z,10.00
2022-12-24T08:58:48.773Z,10.00
2022-12-24T09:01:17.384Z,10.10
2022-12-24T09:03:44.365Z,10.10
2022-12-24T09:06:11.239Z,10.10
2022-12-24T09:08:38.008Z,10.10
2022-12-24T09:11:10.070Z,10.10
2022-12-24T09:13:36.917Z,10.10
2022-12-24T09:16:03.722Z,10.10
2022-12-24T09:18:30.592Z,10.10
2022-12-24T09:21:01.663Z,10.20
2022-12-24T09:23:28.656Z,10.20
2022-12-24T09:25:55.426Z,10.30
2022-12-24T09:28:22.247Z,10.30
2022-12-24T09:31:02.194Z,10.30
2022-12-24T09:33:29.596Z,10.30
2022-12-24T09:35:56.408Z,10.40
2022-12-24T09:38:23.211Z,10.40
2022-12-24T09:40:50.117Z,10.40
2022-12-24T09:43:28.643Z,10.40
2022-12-24T09:46:15.375Z,10.50
2022-12-24T09:48:45.351Z,10.40
2022-12-24T09:51:16.595Z,10.50
2022-12-24T09:54:29.742Z,10.40
2022-12-24T09:56:57.160Z,10.40
2022-12-24T09:59:26.740Z,10.50
2022-12-24T10:01:54.575Z,10.60
2022-12-24T10:04:24.102Z,10.60
2022-12-24T10:07:02.201Z,10.60
2022-12-24T10:09:41.816Z,10.60
2022-12-24T10:12:09.781Z,10.60
2022-12-24T10:14:45.815Z,10.50
2022-12-24T10:17:30.755Z,10.50
2022-12-24T10:20:11.724Z,10.50
2022-12-24T10:22:49.679Z,10.40
2022-12-24T10:25:37.614Z,10.40
2022-12-24T10:28:08.918Z,10.40
2022-12-24T10:30:35.848Z,10.40
2022-12-24T10:33:02.914Z,10.40
2022-12-24T10:35:32.418Z,10.50
2022-12-24T10:37:59.241Z,10.50
2022-12-24T10:40:36.359Z,10.50
2022-12-24T10:43:13.593Z,10.60
2022-12-24T10:45:41.555Z,10.60
2022-12-24T10:48:10.453Z,10.70
2022-12-24T10:50:43.407Z,10.80
2022-12-24T10:53:14.742Z,10.80
2022-12-24T10:55:42.029Z,10.80
2022-12-24T10:58:15.956Z,10.80
2022-12-24T11:00:53.223Z,10.70
2022-12-24T11:03:34.972Z,10.70
2022-12-24T11:06:31.119Z,10.70
2022-12-24T11:09:31.571Z,10.70
2022-12-24T11:12:08.985Z,10.80
2022-12-24T11:14:39.939Z,10.70
2022-12-24T11:17:06.746Z,10.70
2022-12-24T11:19:39.423Z,10.70
2022-12-24T11:22:07.921Z,10.70
2022-12-24T11:24:37.098Z,10.70
2022-12-24T11:27:49.608Z,10.70
2022-12-24T11:30:18.725Z,10.80
2022-12-24T11:33:08.362Z,10.80
2022-12-24T11:35:40.183Z,10.90
2022-12-24T11:38:06.867Z,11.00
2022-12-24T11:40:44.140Z,11.00
2022-12-24T11:43:15.539Z,11.00
2022-12-24T11:45:49.007Z,11.00
2022-12-24T11:48:30.082Z,11.10
2022-12-24T11:51:05.125Z,11.00
2022-12-24T11:53:38.498Z,11.10
2022-12-24T11:56:12.827Z,11.10
2022-12-24T11:58:48.574Z,11.20
2022-12-24T12:01:41.363Z,11.30
2022-12-24T12:04:19.196Z,11.30
2022-12-24T12:07:14.537Z,11.10
2022-12-24T12:09:46.897Z,11.00
2022-12-24T12:12:36.733Z,11.00
2022-12-24T12:15:13.783Z,11.00
2022-12-24T12:17:45.165Z,11.00
2022-12-24T12:20:20.954Z,11.10
2022-12-24T12:23:19.009Z,11.00
2022-12-24T12:25:57.774Z,11.00
2022-12-24T12:28:27.039Z,11.00
2022-12-24T12:31:01.802Z,11.00
2022-12-24T12:33:45.279Z,10.80
2022-12-24T12:36:12.531Z,10.70
2022-12-24T12:38:39.454Z,10.70
2022-12-24T12:41:15.034Z,10.80
2022-12-24T12:43:56.440Z,10.80
2022-12-24T12:46:49.787Z,10.80
2022-12-24T12:49:31.647Z,10.80
2022-12-24T12:52:19.074Z,10.70
2022-12-24T12:55:03.939Z,10.70
2022-12-24T12:57:33.087Z,10.70
2022-12-24T13:00:02.497Z,10.70
2022-12-24T13:02:50.968Z,10.70
2022-12-24T13:05:44.641Z,10.80
2022-12-24T13:08:35.936Z,10.70
2022-12-24T13:11:30.931Z,10.60
2022-12-24T13:14:24.806Z,10.50
2022-12-24T13:17:02.199Z,10.50
2022-12-24T13:19:57.976Z,10.50
2022-12-24T13:22:24.734Z,10.40
2022-12-24T13:24:53.669Z,10.40
2022-12-24T13:27:31.389Z,10.40
2022-12-24T13:30:05.173Z,10.50
2022-12-24T13:32:52.826Z,10.50
2022-12-24T13:35:19.543Z,10.50
2022-12-24T13:37:47.452Z,10.50
2022-12-24T13:40:25.853Z,10.50
2022-12-24T13:43:01.852Z,10.40
2022-12-24T13:45:28.869Z,10.50
2022-12-24T13:48:02.943Z,10.40
2022-12-24T13:50:38.975Z,10.40
2022-12-24T13:53:24.869Z,10.40
2022-12-24T13:55:56.300Z,10.40
2022-12-24T13:58:24.213Z,10.40
2022-12-24T14:01:01.826Z,10.40
2022-12-24T14:03:34.561Z,10.40
2022-12-24T14:06:09.659Z,10.40
2022-12-24T14:08:42.050Z,10.40
2022-12-24T14:11:14.172Z,10.40
2022-12-24T14:13:40.875Z,10.40
2022-12-24T14:16:32.438Z,10.40
2022-12-24T14:19:04.074Z,10.40
2022-12-24T14:21:36.503Z,10.40
2022-12-24T14:24:05.426Z,10.40
2022-12-24T14:26:36.643Z,10.30
2022-12-24T14:29:24.478Z,10.40
2022-12-24T14:31:56.013Z,10.30
2022-12-24T14:34:22.991Z,10.40
2022-12-24T14:36:51.181Z,10.40
2022-12-24T14:39:29.521Z,10.30
2022-12-24T14:42:04.760Z,10.30
2022-12-24T14:44:46.170Z,10.30
2022-12-24T14:47:25.592Z,10.30
2022-12-24T14:50:05.054Z,10.30
2022-12-24T14:53:05.360Z,10.20
2022-12-24T14:55:40.649Z,10.20
2022-12-24T14:58:29.960Z,10.20
2022-12-24T15:01:26.160Z,10.20
2022-12-24T15:04:11.048Z,10.20
2022-12-24T15:06:54.530Z,10.20
2022-12-24T15:09:31.377Z,10.10
2022-12-24T15:12:00.129Z,10.10
2022-12-24T15:14:27.612Z,10.10
2022-12-24T15:16:55.971Z,10.10
2022-12-24T15:19:28.346Z,10.10
2022-12-24T15:21:56.248Z,10.20
2022-12-24T15:24:32.219Z,10.20
2022-12-24T15:26:59.553Z,10.20
2022-12-24T15:29:28.151Z,10.20
2022-12-24T15:31:59.697Z,10.30
2022-12-24T15:34:35.047Z,10.30
2022-12-24T15:37:07.795Z,10.30
2022-12-24T15:39:34.591Z,10.30
2022-12-24T15:42:13.261Z,10.30
2022-12-24T15:44:42.547Z,10.20
2022-12-24T15:47:15.479Z,10.20
2022-12-24T15:49:44.359Z,10.20
2022-12-24T15:52:12.507Z,10.20
2022-12-24T15:54:44.790Z,10.20
2022-12-24T15:57:25.221Z,10.20
2022-12-24T15:59:55.454Z,10.20
2022-12-24T16:02:31.835Z,10.20
2022-12-24T16:05:34.086Z,10.20
2022-12-24T16:08:16.783Z,10.20
2022-12-24T16:11:06.231Z,10.20
2022-12-24T16:13:38.552Z,10.30
2022-12-24T16:16:12.853Z,10.20
2022-12-24T16:18:53.404Z,10.20
2022-12-24T16:21:30.745Z,10.20
2022-12-24T16:24:29.759Z,10.20
2022-12-24T16:26:56.756Z,10.20
2022-12-24T16:29:23.730Z,10.20
2022-12-24T16:31:54.802Z,10.20
2022-12-24T16:34:24.145Z,10.20
2022-12-24T16:36:50.854Z,10.10
2022-12-24T16:39:31.908Z,10.10
2022-12-24T16:42:18.594Z,10.10
2022-12-24T16:44:45.464Z,10.10
2022-12-24T16:47:20.461Z,10.10
2022-12-24T16:49:47.230Z,10.00
2022-12-24T16:52:18.797Z,10.00
2022-12-24T16:54:45.526Z,10.00
2022-12-24T16:57:12.399Z,10.00
2022-12-24T16:59:39.139Z,10.00
2022-12-24T17:02:14.346Z,10.00
2022-12-24T17:04:41.673Z,10.00
2022-12-24T17:07:09.390Z,10.00
2022-12-24T17:09:36.075Z,10.00
2022-12-24T17:12:02.771Z,9.90
2022-12-24T17:14:29.449Z,10.00
2022-12-24T17:16:56.494Z,10.00
2022-12-24T17:19:23.185Z,10.00
2022-12-24T17:21:49.895Z,10.10
2022-12-24T17:24:16.602Z,10.10
2022-12-24T17:26:43.598Z,10.00
2022-12-24T17:29:10.315Z,10.00
2022-12-24T17:31:43.416Z,10.10
2022-12-24T17:34:10.271Z,10.00
2022-12-24T17:36:36.987Z,10.00
2022-12-24T17:39:03.838Z,10.00
2022-12-24T17:41:30.619Z,10.10
2022-12-24T17:43:58.178Z,10.10
2022-12-24T17:46:24.872Z,10.10
2022-12-24T17:48:52.041Z,10.00
2022-12-24T17:51:21.078Z,10.10
2022-12-24T17:53:47.989Z,10.00
2022-12-24T17:56:15.370Z,10.10
2022-12-24T17:58:42.892Z,10.10
2022-12-24T18:01:15.254Z,10.10
2022-12-24T18:03:42.250Z,10.00
2022-12-24T18:06:09.866Z,10.00
2022-12-24T18:08:36.654Z,10.00
2022-12-24T18:11:21.207Z,10.00
2022-12-24T18:13:48.089Z,10.00
2022-12-24T18:16:23.023Z,9.90
2022-12-24T18:18:49.855Z,9.90
2022-12-24T18:21:17.310Z,9.90
2022-12-24T18:23:45.376Z,9.90
2022-12-24T18:26:12.244Z,9.90
2022-12-24T18:28:39.340Z,9.90
2022-12-24T18:31:07.801Z,9.90
2022-12-24T18:33:34.890Z,9.90
2022-12-24T18:36:01.710Z,9.90
2022-12-24T18:38:28.618Z,9.90
2022-12-24T18:40:55.277Z,9.90
2022-12-24T18:43:22.043Z,9.90
2022-12-24T18:45:48.895Z,9.90
2022-12-24T18:48:15.556Z,9.90
2022-12-24T18:50:42.247Z,9.80
2022-12-24T18:53:09.001Z,9.90
2022-12-24T18:55:40.009Z,9.80
2022-12-24T18:58:06.763Z,9.80
2022-12-24T19:00:33.534Z,9.80
2022-12-24T19:03:00.400Z,9.80
2022-12-24T19:05:27.451Z,9.80
2022-12-24T19:07:54.172Z,9.80
2022-12-24T19:10:20.850Z,9.80
2022-12-24T19:12:47.616Z,9.80
2022-12-24T19:15:15.126Z,9.90
2022-12-24T19:17:42.065Z,9.90
2022-12-24T19:20:09.067Z,9.90
2022-12-24T19:22:35.796Z,9.90
2022-12-24T19:25:02.517Z,9.80
2022-12-24T19:27:29.232Z,9.80
2022-12-24T19:29:55.909Z,9.80
2022-12-24T19:32:22.549Z,9.80
2022-12-24T19:34:49.226Z,9.80
2022-12-24T19:37:16.827Z,9.80
2022-12-24T19:39:43.546Z,9.80
2022-12-24T19:42:10.252Z,9.80
2022-12-24T19:44:36.985Z,9.90
2022-12-24T19:47:03.694Z,9.80
2022-12-24T19:49:30.364Z,9.80
2022-12-24T19:51:57.974Z,9.80
2022-12-24T19:54:24.731Z,9.80
2022-12-24T19:56:51.476Z,9.80
2022-12-24T19:59:18.241Z,9.80
2022-12-24T20:01:46.942Z,9.80
2022-12-24T20:04:18.174Z,9.80
2022-12-24T20:06:44.899Z,9.80
2022-12-24T20:09:12.586Z,9.80
2022-12-24T20:11:39.282Z,9.80
2022-12-24T20:14:06.166Z,9.80
2022-12-24T20:16:33.043Z,9.70
2022-12-24T20:19:00.990Z,9.70
2022-12-24T20:21:27.720Z,9.70
2022-12-24T20:23:54.421Z,9.80
2022-12-24T20:26:22.597Z,9.80
2022-12-24T20:28:49.418Z,9.70
2022-12-24T20:31:18.240Z,9.70
2022-12-24T20:33:45.313Z,9.70
2022-12-24T20:36:12.917Z,9.70
2022-12-24T20:38:39.657Z,9.70
2022-12-24T20:41:07.087Z,9.70
2022-12-24T20:43:37.117Z,9.70
2022-12-24T20:46:05.507Z,9.70
2022-12-24T20:48:32.201Z,9.70
2022-12-24T20:50:59.054Z,9.70
2022-12-24T20:53:26.625Z,9.70
2022-12-24T20:55:54.078Z,9.70
2022-12-24T20:58:20.753Z,9.70
2022-12-24T21:00:49.376Z,9.70
2022-12-24T21:03:16.693Z,9.70
2022-12-24T21:05:43.895Z,9.70
2022-12-24T21:08:10.836Z,9.70
2022-12-24T21:10:37.760Z,9.70
2022-12-24T21:13:04.801Z,9.60
2022-12-24T21:15:33.688Z,9.60
2022-12-24T21:18:00.476Z,9.60
2022-12-24T21:20:31.156Z,9.60
2022-12-24T21:23:01.024Z,9.60
2022-12-24T21:25:28.230Z,9.60
2022-12-24T21:27:57.571Z,9.60
2022-12-24T21:30:24.628Z,9.60
2022-12-24T21:32:51.369Z,9.60
2022-12-24T21:35:18.050Z,9.60
2022-12-24T21:37:44.750Z,9.60
2022-12-24T21:40:11.921Z,9.60
2022-12-24T21:42:38.671Z,9.60
2022-12-24T21:45:06.210Z,9.60
2022-12-24T21:47:34.445Z,9.60
2022-12-24T21:50:20.926Z,9.60
2022-12-24T21:52:48.880Z,9.60
2022-12-24T21:55:15.584Z,9.60
2022-12-24T21:57:54.367Z,9.60
2022-12-24T22:00:26.590Z,9.50
2022-12-24T22:02:55.902Z,9.50
2022-12-24T22:05:24.417Z,9.50
2022-12-24T22:08:09.486Z,9.50
2022-12-24T22:10:55.534Z,9.50
2022-12-24T22:13:22.282Z,9.50
2022-12-24T22:15:50.110Z,9.50
2022-12-24T22:18:19.381Z,9.50
2022-12-24T22:20:46.443Z,9.50
2022-12-24T22:23:16.187Z,9.50
2022-12-24T22:25:43.720Z,9.50
2022-12-24T22:28:10.518Z,9.50
2022-12-24T22:30:39.443Z,9.50
2022-12-24T22:33:06.540Z,9.50
2022-12-24T22:35:33.630Z,9.50
2022-12-24T22:38:00.667Z,9.40
2022-12-24T22:40:27.891Z,9.40
2022-12-24T22:42:54.692Z,9.40
2022-12-24T22:45:22.741Z,9.40
2022-12-24T22:47:49.951Z,9.50
2022-12-24T22:50:16.727Z,9.50
2022-12-24T22:52:43.400Z,9.40
2022-12-24T22:55:10.159Z,9.40
2022-12-24T22:57:36.910Z,9.50
2022-12-24T23:00:16.913Z,9.50
2022-12-24T23:02:43.901Z,9.50
2022-12-24T23:05:14.571Z,9.50
2022-12-24T23:07:41.396Z,9.50
2022-12-24T23:10:08.543Z,9.50
2022-12-24T23:12:53.861Z,9.50
2022-12-24T23:15:20.542Z,9.50
2022-12-24T23:17:48.970Z,9.50
2022-12-24T23:20:15.896Z,9.60
2022-12-24T23:22:42.580Z,9.60
2022-12-24T23:25:09.559Z,9.50
2022-12-24T23:27:36.275Z,9.50
2022-12-24T23:30:03.266Z,9.50
2022-12-24T23:32:29.964Z,9.50
2022-12-24T23:34:56.732Z,9.60
2022-12-24T23:37:25.064Z,9.60
2022-12-24T23:39:53.786Z,9.50
2022-12-24T23:42:20.456Z,9.50
2022-12-24T23:44:47.126Z,9.50
2022-12-24T23:47:14.087Z,9.50
2022-12-24T23:49:40.810Z,9.50
2022-12-24T23:52:07.562Z,9.50
2022-12-24T23:54:34.235Z,9.50
2022-12-24T23:57:00.997Z,9.50
2022-12-24T23:59:27.747Z,9.50
